Time;durP1;ratioP1;P1;durP2;ratioP2;P2;SDS_P1;SDS_P2;PMS_P1;PMS_P2;Temp;Humidity;BMP_temperature;BMP_pressure;BME280_temperature;BME280_humidity;BME280_pressure;Samples;Min_cycle;Max_cycle;Signal;HPM_P1;HPM_P2
2021/10/20 00:02:04;;;;;;;15.13;7.30;;;;;;;0.29;66.86;100643.95;1774856;78;21061;-57
2021/10/20 00:04:32;;;;;;;16.13;7.30;;;;;;;0.30;67.01;100640.87;1770974;78;21436;-57
2021/10/20 00:06:59;;;;;;;16.50;6.93;;;;;;;0.32;67.11;100637.37;1791231;78;21543;-57
2021/10/20 00:09:26;;;;;;;15.67;6.50;;;;;;;0.35;67.20;100629.86;1784161;78;21044;-57
2021/10/20 00:11:52;;;;;;;17.13;5.83;;;;;;;0.38;67.19;100629.45;1798336;78;20909;-57
2021/10/20 00:14:19;;;;;;;12.03;5.77;;;;;;;0.43;67.27;100632.55;1762981;80;21048;-57
2021/10/20 00:16:45;;;;;;;15.97;7.30;;;;;;;0.46;67.24;100633.48;1769682;80;21049;-57
2021/10/20 00:19:11;;;;;;;14.30;6.00;;;;;;;0.49;67.26;100624.23;1767710;80;21638;-57
2021/10/20 00:21:38;;;;;;;13.80;6.47;;;;;;;0.51;67.29;100618.48;1768173;80;21721;-57
2021/10/20 00:24:05;;;;;;;13.90;6.47;;;;;;;0.54;67.35;100611.89;1765590;79;20879;-57
2021/10/20 00:26:32;;;;;;;14.00;6.43;;;;;;;0.56;67.50;100611.47;1770418;80;20945;-57
2021/10/20 00:28:58;;;;;;;18.40;7.33;;;;;;;0.61;67.54;100618.10;1764107;79;20996;-58
2021/10/20 00:31:25;;;;;;;14.43;7.07;;;;;;;0.63;67.63;100615.03;1773600;80;21141;-58
2021/10/20 00:33:51;;;;;;;11.77;5.87;;;;;;;0.67;67.68;100608.89;1756287;79;21053;-57
2021/10/20 00:36:17;;;;;;;14.60;5.87;;;;;;;0.72;67.79;100600.07;1770305;80;21460;-58
2021/10/20 00:38:44;;;;;;;13.27;6.17;;;;;;;0.77;67.83;100593.92;1761955;79;21486;-57
2021/10/20 00:41:12;;;;;;;11.57;5.13;;;;;;;0.82;67.83;100591.73;1752788;79;21617;-58
2021/10/20 00:43:41;;;;;;;12.60;6.53;;;;;;;0.86;67.79;100605.42;1785503;78;21070;-57
2021/10/20 00:46:07;;;;;;;13.10;5.13;;;;;;;0.87;67.81;100599.25;1785262;79;21339;-58
2021/10/20 00:48:34;;;;;;;11.37;5.53;;;;;;;0.86;67.91;100600.56;1764355;80;21318;-57
2021/10/20 00:51:00;;;;;;;9.33;5.17;;;;;;;0.86;68.14;100592.17;1757108;79;21096;-57
2021/10/20 00:53:26;;;;;;;10.40;5.87;;;;;;;0.90;68.28;100593.97;1761835;79;21139;-57
2021/10/20 00:55:53;;;;;;;14.10;5.50;;;;;;;0.95;68.32;100595.30;1783487;79;21115;-58
2021/10/20 00:58:20;;;;;;;15.63;5.23;;;;;;;0.97;68.35;100597.52;1794601;78;21060;-57
2021/10/20 01:00:46;;;;;;;13.27;6.37;;;;;;;0.96;68.40;100591.77;1783262;79;21088;-58
2021/10/20 01:03:12;;;;;;;15.20;6.00;;;;;;;0.98;68.54;100584.72;1779136;79;21525;-58
2021/10/20 01:05:40;;;;;;;10.93;4.93;;;;;;;1.00;68.64;100581.20;1781241;79;21620;-57
2021/10/20 01:08:07;;;;;;;14.23;5.80;;;;;;;1.04;68.76;100586.05;1779874;79;21096;-58
2021/10/20 01:10:33;;;;;;;15.10;6.57;;;;;;;1.08;68.83;100583.44;1748777;79;21054;-58
2021/10/20 01:12:59;;;;;;;13.23;5.97;;;;;;;1.12;68.88;100574.59;1774231;78;21093;-57
2021/10/20 01:15:27;;;;;;;15.37;5.93;;;;;;;1.17;68.89;100569.76;1774854;79;21403;-57
2021/10/20 01:17:53;;;;;;;12.23;5.33;;;;;;;1.20;68.95;100567.98;1772076;78;21123;-58
2021/10/20 01:20:27;;;;;;;9.77;4.80;;;;;;;1.23;68.94;100566.67;1804638;78;21286;-58
2021/10/20 01:22:54;;;;;;;11.55;6.05;;;;;;;1.26;68.95;100566.69;1776533;78;21059;-57
2021/10/20 01:25:20;;;;;;;15.63;6.43;;;;;;;1.29;68.93;100577.29;1794852;79;21096;-56
2021/10/20 01:27:47;;;;;;;15.27;5.17;;;;;;;1.32;68.79;100577.30;1772314;78;21073;-56
2021/10/20 01:30:13;;;;;;;10.23;5.03;;;;;;;1.33;68.70;100572.89;1774902;78;21025;-57
2021/10/20 01:32:40;;;;;;;12.50;6.33;;;;;;;1.34;68.73;100577.31;1775374;79;21131;-58
2021/10/20 01:35:07;;;;;;;15.33;5.93;;;;;;;1.34;68.71;100568.03;1774976;79;21044;-57
2021/10/20 01:37:35;;;;;;;14.93;6.57;;;;;;;1.34;68.60;100568.03;1774786;79;21125;-57
2021/10/20 01:40:03;;;;;;;18.37;7.13;;;;;;;1.33;68.52;100572.45;1774218;79;21089;-57
2021/10/20 01:42:29;;;;;;;18.47;7.27;;;;;;;1.32;68.40;100572.44;1779839;79;21123;-57
2021/10/20 01:44:56;;;;;;;19.67;7.30;;;;;;;1.28;68.34;100571.97;1772472;79;21481;-57
2021/10/20 01:47:23;;;;;;;19.77;8.53;;;;;;;1.23;68.39;100574.63;1776260;78;21121;-57
2021/10/20 01:49:49;;;;;;;19.93;8.17;;;;;;;1.21;68.37;100576.39;1776323;78;21104;-57
2021/10/20 01:52:16;;;;;;;24.40;9.03;;;;;;;1.18;68.36;100569.77;1799048;78;21069;-57
2021/10/20 01:54:42;;;;;;;25.17;10.27;;;;;;;1.15;68.33;100572.41;1796592;78;21092;-58
2021/10/20 01:57:09;;;;;;;18.10;8.77;;;;;;;1.13;68.31;100576.80;1795860;78;21138;-58
2021/10/20 01:59:35;;;;;;;24.07;8.73;;;;;;;1.08;68.29;100579.46;1781705;78;21071;-57
2021/10/20 02:02:06;;;;;;;18.67;7.60;;;;;;;1.03;68.30;100580.30;1770141;79;21617;-58
2021/10/20 02:04:32;;;;;;;20.27;8.17;;;;;;;0.98;68.38;100582.95;1746823;78;21961;-57
2021/10/20 02:07:00;;;;;;;21.40;8.73;;;;;;;0.93;68.47;100580.73;1800666;78;21608;-57
2021/10/20 02:09:27;;;;;;;23.07;8.37;;;;;;;0.93;68.68;100581.18;1799298;78;20971;-58
2021/10/20 02:11:53;;;;;;;20.83;8.50;;;;;;;0.91;68.74;100577.62;1796707;78;21530;-58
2021/10/20 02:14:20;;;;;;;23.40;9.40;;;;;;;0.91;68.66;100580.28;1794592;78;21768;-58
2021/10/20 02:16:46;;;;;;;18.20;7.87;;;;;;;0.90;68.67;100582.48;1802637;78;20945;-58
2021/10/20 02:19:12;;;;;;;16.20;6.83;;;;;;;0.90;68.75;100581.16;1800447;78;21072;-57
2021/10/20 02:21:40;;;;;;;17.83;7.77;;;;;;;0.90;68.76;100578.06;1800906;78;22755;-57
2021/10/20 02:24:06;;;;;;;20.60;8.50;;;;;;;0.90;68.77;100587.78;1773734;78;22433;-58
2021/10/20 02:26:32;;;;;;;21.07;8.20;;;;;;;0.90;68.78;100586.02;1804341;78;21672;-57
2021/10/20 02:28:59;;;;;;;20.57;9.47;;;;;;;0.89;68.83;100585.57;1797256;78;21065;-57
2021/10/20 02:31:26;;;;;;;20.33;7.77;;;;;;;0.90;68.83;100582.48;1799808;78;21175;-57
2021/10/20 02:33:52;;;;;;;16.83;6.40;;;;;;;0.90;68.84;100581.16;1799354;78;21376;-57
2021/10/20 02:36:18;;;;;;;16.80;7.90;;;;;;;0.89;68.80;100580.27;1798573;78;21007;-57
2021/10/20 02:38:45;;;;;;;14.97;7.03;;;;;;;0.87;68.85;100582.02;1774340;78;21635;-57
2021/10/20 02:41:11;;;;;;;17.30;8.50;;;;;;;0.89;68.89;100580.70;1769619;78;21463;-58
2021/10/20 02:43:39;;;;;;;17.83;6.70;;;;;;;0.91;68.89;100577.62;1774299;78;21117;-57
2021/10/20 02:46:06;;;;;;;14.63;7.37;;;;;;;0.93;68.85;100576.77;1772354;78;21419;-58
2021/10/20 02:48:32;;;;;;;20.27;7.63;;;;;;;0.94;68.83;100580.27;1803903;78;20934;-57
2021/10/20 02:50:59;;;;;;;19.00;7.20;;;;;;;0.96;68.80;100574.10;1779592;78;20900;-57
2021/10/20 02:53:25;;;;;;;15.80;7.07;;;;;;;0.97;68.87;100574.55;1758491;80;21053;-57
2021/10/20 02:55:51;;;;;;;16.53;6.97;;;;;;;1.00;68.91;100574.58;1770440;79;21104;-57
2021/10/20 02:58:17;;;;;;;16.27;6.77;;;;;;;1.02;68.82;100578.09;1775267;78;21119;-58
2021/10/20 03:00:44;;;;;;;24.93;7.23;;;;;;;1.04;68.83;100583.41;1762487;80;21042;-57
2021/10/20 03:03:10;;;;;;;14.17;6.63;;;;;;;1.04;68.82;100580.31;1762507;80;21544;-57
2021/10/20 03:05:37;;;;;;;13.37;6.87;;;;;;;1.03;68.93;100589.14;1761239;80;21066;-58
2021/10/20 03:08:03;;;;;;;14.80;6.17;;;;;;;1.01;69.07;100591.37;1770081;79;21108;-57
2021/10/20 03:10:30;;;;;;;15.77;7.60;;;;;;;0.99;69.26;100594.01;1767015;80;21570;-57
2021/10/20 03:12:57;;;;;;;14.40;6.73;;;;;;;1.00;69.42;100594.45;1764392;80;21045;-57
2021/10/20 03:15:24;;;;;;;19.03;7.30;;;;;;;1.02;69.58;100587.84;1763783;80;21108;-58
2021/10/20 03:17:51;;;;;;;11.60;6.07;;;;;;;1.06;69.63;100589.16;1746428;80;21013;-57
2021/10/20 03:20:17;;;;;;;13.07;6.07;;;;;;;1.11;69.73;100586.08;1767637;80;21462;-57
2021/10/20 03:22:44;;;;;;;15.17;5.83;;;;;;;1.18;69.66;100600.27;1773551;79;21114;-57
2021/10/20 03:25:12;;;;;;;13.53;5.33;;;;;;;1.18;69.78;100594.08;1773596;80;21407;-57
2021/10/20 03:27:49;;;;;;;16.50;6.77;;;;;;;1.19;69.98;100588.78;1770446;80;20887;-58
2021/10/20 03:30:17;;;;;;;15.60;6.60;;;;;;;1.23;70.09;100586.56;1769403;80;21112;-58
2021/10/20 03:32:43;;;;;;;35.27;8.33;;;;;;;1.30;70.18;100589.67;1776663;80;20954;-58
2021/10/20 03:35:10;;;;;;;55.07;8.97;;;;;;;1.38;70.20;100579.08;1770865;80;21107;-58
2021/10/20 03:37:36;;;;;;;43.23;8.40;;;;;;;1.44;70.28;100578.67;1771021;80;20984;-58
2021/10/20 03:40:04;;;;;;;34.23;8.23;;;;;;;1.53;70.28;100572.93;1769729;79;21038;-58
2021/10/20 03:42:32;;;;;;;20.63;7.00;;;;;;;1.62;70.30;100571.58;1750694;80;21055;-57
2021/10/20 03:44:59;;;;;;;13.83;6.00;;;;;;;1.69;70.21;100570.30;1768390;80;21065;-58
2021/10/20 03:47:26;;;;;;;16.03;4.77;;;;;;;1.79;69.97;100569.38;1770858;79;21765;-58
2021/10/20 03:49:52;;;;;;;10.87;4.73;;;;;;;1.88;69.70;100567.17;1771142;80;21036;-58
2021/10/20 03:52:19;;;;;;;10.23;2.37;;;;;;;1.99;69.35;100560.09;1770878;79;21398;-58
2021/10/20 03:54:45;;;;;;;11.27;3.27;;;;;;;2.08;68.86;100564.08;1769947;80;21012;-57
2021/10/20 03:57:12;;;;;;;5.93;2.07;;;;;;;2.20;68.45;100570.71;1769946;79;21531;-58
2021/10/20 03:59:38;;;;;;;7.50;1.70;;;;;;;2.31;67.98;100574.66;1769731;80;21645;-57
2021/10/20 04:02:05;;;;;;;6.90;1.90;;;;;;;2.43;67.39;100571.09;1773223;79;20957;-58
2021/10/20 04:04:31;;;;;;;4.73;1.53;;;;;;;2.56;66.82;100564.41;1773002;80;21464;-57
2021/10/20 04:06:59;;;;;;;6.37;1.50;;;;;;;2.69;66.33;100569.70;1770696;79;21495;-58
2021/10/20 04:09:25;;;;;;;7.73;2.73;;;;;;;2.80;65.80;100567.89;1777606;79;21124;-58
2021/10/20 04:11:52;;;;;;;5.83;1.90;;;;;;;2.92;65.40;100562.06;1778873;78;22308;-57
2021/10/20 04:14:18;;;;;;;6.67;2.17;;;;;;;3.03;64.82;100552.27;1777736;79;21239;-58
2021/10/20 04:16:45;;;;;;;9.93;3.00;;;;;;;3.15;64.29;100557.09;1781061;79;21471;-57
2021/10/20 04:19:11;;;;;;;15.30;4.67;;;;;;;3.24;63.82;100557.01;1776126;79;21119;-59
2021/10/20 04:21:37;;;;;;;10.83;3.87;;;;;;;3.35;63.42;100544.53;1782045;79;21037;-58
2021/10/20 04:24:04;;;;;;;15.70;4.87;;;;;;;3.43;63.15;100546.70;1778076;79;22839;-58
2021/10/20 04:26:31;;;;;;;12.53;4.40;;;;;;;3.51;62.77;100542.20;1773760;80;21046;-58
2021/10/20 04:28:58;;;;;;;13.13;3.83;;;;;;;3.57;62.54;100526.20;1779409;79;21382;-58
2021/10/20 04:31:24;;;;;;;22.00;5.23;;;;;;;3.64;62.36;100519.05;1771931;78;21105;-57
2021/10/20 04:33:50;;;;;;;22.53;5.07;;;;;;;3.70;62.13;100494.58;1776316;80;21441;-58
2021/10/20 04:36:17;;;;;;;13.07;6.07;;;;;;;3.74;61.83;100489.64;1801758;78;21554;-58
2021/10/20 04:38:43;;;;;;;15.77;6.27;;;;;;;3.79;61.53;100511.81;1799062;78;21590;-58
2021/10/20 04:41:10;;;;;;;19.83;5.97;;;;;;;3.83;61.22;100519.30;1802466;78;21120;-58
2021/10/20 04:43:37;;;;;;;15.43;5.67;;;;;;;3.87;61.06;100514.41;1774856;80;21040;-58
2021/10/20 04:46:03;;;;;;;27.73;6.33;;;;;;;3.91;60.93;100515.27;1800381;78;21337;-58
2021/10/20 04:48:30;;;;;;;14.80;5.70;;;;;;;3.94;60.68;100515.22;1769200;80;21130;-59
2021/10/20 04:50:57;;;;;;;15.57;5.23;;;;;;;3.97;60.72;100512.55;1774936;78;21073;-59
2021/10/20 04:53:23;;;;;;;21.20;6.67;;;;;;;3.99;60.63;100502.31;1781193;78;21061;-59
2021/10/20 04:55:50;;;;;;;18.97;6.40;;;;;;;4.02;60.64;100489.39;1804199;78;21104;-58
2021/10/20 04:58:16;;;;;;;14.43;4.87;;;;;;;4.05;60.67;100496.92;1776961;78;21079;-57
2021/10/20 05:00:42;;;;;;;12.80;5.57;;;;;;;4.08;60.63;100498.67;1773568;79;21131;-59
2021/10/20 05:03:09;;;;;;;16.60;4.93;;;;;;;4.11;60.54;100502.63;1775710;79;21040;-58
2021/10/20 05:05:36;;;;;;;11.10;5.03;;;;;;;4.14;60.48;100499.94;1784775;78;21048;-57
2021/10/20 05:08:02;;;;;;;13.73;5.33;;;;;;;4.17;60.48;100493.22;1774034;80;21798;-59
2021/10/20 05:10:29;;;;;;;13.87;4.60;;;;;;;4.19;60.32;100498.98;1784696;78;20929;-58
2021/10/20 05:12:56;;;;;;;17.00;5.30;;;;;;;4.24;60.28;100495.40;1774439;80;21094;-59
2021/10/20 05:15:22;;;;;;;15.57;5.60;;;;;;;4.27;60.23;100487.34;1770847;80;20907;-58
2021/10/20 05:17:49;;;;;;;19.17;6.67;;;;;;;4.30;60.22;100486.88;1801252;79;20918;-58
2021/10/20 05:22:26;;;;;;;15.63;5.17;;;;;;;4.40;60.11;100494.33;1788372;78;26524;-58
2021/10/20 05:24:52;;;;;;;13.43;5.53;;;;;;;4.39;60.04;100495.22;1755410;80;21643;-59
2021/10/20 05:27:19;;;;;;;21.50;6.50;;;;;;;4.43;59.99;100497.81;1762685;78;21136;-57
2021/10/20 05:29:45;;;;;;;16.57;6.27;;;;;;;4.45;59.96;100492.03;1761889;80;21046;-59
2021/10/20 05:32:11;;;;;;;14.53;5.37;;;;;;;4.49;59.84;100493.77;1752608;79;21122;-58
2021/10/20 05:34:37;;;;;;;17.53;6.23;;;;;;;4.54;59.86;100498.59;1734197;80;21345;-58
2021/10/20 05:37:04;;;;;;;12.00;4.50;;;;;;;4.58;59.89;100490.56;1738554;80;22238;-55
2021/10/20 05:39:31;;;;;;;13.80;5.20;;;;;;;4.63;59.89;100495.38;1740368;80;22780;-57
2021/10/20 05:41:58;;;;;;;15.17;5.77;;;;;;;4.67;59.87;100486.45;1739145;80;21131;-57
2021/10/20 05:44:24;;;;;;;15.93;4.77;;;;;;;4.72;59.80;100484.59;1742023;80;20973;-59
2021/10/20 05:46:52;;;;;;;12.07;5.00;;;;;;;4.76;59.83;100485.00;1748410;80;20938;-58
2021/10/20 05:49:18;;;;;;;13.03;5.37;;;;;;;4.80;59.82;100489.38;1739841;80;21322;-56
2021/10/20 05:51:44;;;;;;;14.20;5.27;;;;;;;4.85;59.91;100487.52;1735600;80;21144;-58
2021/10/20 05:54:11;;;;;;;16.63;5.20;;;;;;;4.91;59.92;100484.79;1738774;80;21070;-58
2021/10/20 05:56:37;;;;;;;11.50;5.43;;;;;;;4.96;59.98;100485.59;1740812;80;21084;-58
2021/10/20 05:59:04;;;;;;;12.03;4.03;;;;;;;5.02;60.17;100485.98;1739863;80;21066;-58
2021/10/20 06:01:31;;;;;;;11.67;5.17;;;;;;;5.07;60.21;100481.45;1742782;80;20922;-58
2021/10/20 06:03:58;;;;;;;12.77;6.03;;;;;;;5.14;60.14;100479.12;1741400;80;21133;-58
2021/10/20 06:06:25;;;;;;;15.97;5.77;;;;;;;5.19;60.21;100474.13;1738684;80;20945;-57
2021/10/20 06:08:53;;;;;;;15.30;6.77;;;;;;;5.23;60.21;100458.52;1706518;81;21361;-58
2021/10/20 06:11:20;;;;;;;16.70;6.40;;;;;;;5.29;60.32;100460.19;1705115;81;20993;-58
2021/10/20 06:13:46;;;;;;;20.57;6.43;;;;;;;5.34;60.38;100459.69;1709184;81;20922;-56
2021/10/20 06:16:13;;;;;;;15.27;6.83;;;;;;;5.39;60.36;100460.94;1709311;82;21106;-57
2021/10/20 06:18:40;;;;;;;16.80;7.53;;;;;;;5.43;60.48;100449.31;1675575;83;21451;-57
2021/10/20 06:21:06;;;;;;;10.93;6.57;;;;;;;5.49;60.67;100453.21;1684642;83;21074;-57
2021/10/20 06:23:33;;;;;;;16.07;6.70;;;;;;;5.56;60.86;100448.19;1733950;81;22309;-58
2021/10/20 06:25:59;;;;;;;14.13;6.20;;;;;;;5.62;61.12;100442.73;1730908;81;21128;-58
2021/10/20 06:28:25;;;;;;;12.27;6.40;;;;;;;5.70;61.35;100444.36;1732930;80;21065;-59
2021/10/20 06:30:52;;;;;;;12.90;6.00;;;;;;;5.78;61.59;100440.25;1738424;81;21018;-58
2021/10/20 06:33:18;;;;;;;15.13;7.77;;;;;;;5.89;61.83;100440.06;1720526;81;21034;-58
2021/10/20 06:35:45;;;;;;;16.37;7.67;;;;;;;5.99;62.15;100447.02;1727042;80;21201;-56
2021/10/20 06:38:11;;;;;;;14.00;6.67;;;;;;;6.10;62.38;100442.36;1726686;81;21090;-57
2021/10/20 06:40:38;;;;;;;21.83;8.33;;;;;;;6.23;62.47;100428.28;1727417;81;21458;-57
2021/10/20 06:43:04;;;;;;;12.10;6.90;;;;;;;6.37;62.72;100428.45;1727760;81;21065;-58
2021/10/20 06:45:31;;;;;;;18.63;8.07;;;;;;;6.50;62.92;100418.36;1723141;81;21030;-56
2021/10/20 06:47:57;;;;;;;14.03;7.67;;;;;;;6.64;63.06;100416.72;1730410;81;21084;-58
2021/10/20 06:50:23;;;;;;;14.83;8.03;;;;;;;6.78;63.20;100411.51;1727102;81;21092;-56
2021/10/20 06:52:51;;;;;;;11.00;6.43;;;;;;;6.90;63.17;100410.33;1726197;81;21126;-58
2021/10/20 06:55:18;;;;;;;10.23;7.33;;;;;;;7.04;63.23;100414.05;1729502;81;21057;-58
2021/10/20 06:57:46;;;;;;;17.07;7.33;;;;;;;7.14;63.25;100402.21;1733198;81;20948;-57
2021/10/20 07:00:12;;;;;;;9.20;7.27;;;;;;;7.23;63.30;100398.83;1730687;81;21570;-58
2021/10/20 07:02:39;;;;;;;13.40;7.30;;;;;;;7.33;63.28;100399.94;1728348;81;21057;-57
2021/10/20 07:05:06;;;;;;;11.70;8.57;;;;;;;7.41;63.33;100402.84;1724833;81;21861;-58
2021/10/20 07:07:32;;;;;;;13.50;8.10;;;;;;;7.48;63.28;100399.13;1728617;81;21117;-57
2021/10/20 07:09:59;;;;;;;16.67;8.37;;;;;;;7.54;63.33;100393.59;1725353;81;21094;-58
2021/10/20 07:12:27;;;;;;;18.03;11.83;;;;;;;7.62;63.39;100398.75;1722188;81;21101;-58
2021/10/20 07:14:54;;;;;;;26.97;15.33;;;;;;;7.68;63.47;100389.20;1725251;80;21045;-58
2021/10/20 07:17:22;;;;;;;23.47;16.13;;;;;;;7.75;63.48;100388.12;1730453;80;21058;-57
2021/10/20 07:19:48;;;;;;;20.97;14.07;;;;;;;7.84;63.41;100389.67;1724065;81;21646;-58
2021/10/20 07:22:14;;;;;;;17.97;11.60;;;;;;;7.91;63.49;100396.16;1720144;81;21109;-57
2021/10/20 07:24:41;;;;;;;17.20;12.83;;;;;;;7.97;63.39;100392.45;1713138;81;21149;-57
2021/10/20 07:27:07;;;;;;;13.73;9.53;;;;;;;8.05;63.32;100385.08;1727371;81;21066;-58
2021/10/20 07:29:35;;;;;;;13.33;8.97;;;;;;;8.12;63.33;100382.64;1716151;81;21091;-56
2021/10/20 07:32:03;;;;;;;12.07;6.93;;;;;;;8.21;63.24;100385.52;1721443;81;20911;-57
2021/10/20 07:34:29;;;;;;;9.23;5.97;;;;;;;8.28;63.14;100378.59;1725390;81;20899;-58
2021/10/20 07:36:55;;;;;;;9.97;7.17;;;;;;;8.35;63.06;100376.18;1721006;81;21009;-58
2021/10/20 07:39:22;;;;;;;9.40;6.23;;;;;;;8.43;63.15;100380.44;1716200;81;21062;-58
2021/10/20 07:41:49;;;;;;;10.67;6.30;;;;;;;8.51;63.20;100387.79;1716137;81;22506;-58
2021/10/20 07:44:15;;;;;;;12.30;7.70;;;;;;;8.57;63.16;100376.90;1729992;82;21047;-56
2021/10/20 07:46:42;;;;;;;15.57;7.50;;;;;;;8.64;63.15;100379.34;1721093;81;20974;-58
2021/10/20 07:49:10;;;;;;;13.10;7.63;;;;;;;8.71;63.28;100382.25;1713805;81;21005;-57
2021/10/20 07:51:36;;;;;;;12.95;7.95;;;;;;;8.78;63.42;100377.56;1718205;81;21149;-57
2021/10/20 07:54:03;;;;;;;13.27;8.20;;;;;;;8.84;63.47;100370.69;1720068;81;22397;-58
2021/10/20 07:56:33;;;;;;;9.20;7.67;;;;;;;8.92;63.66;100370.45;1709527;81;21101;-57
2021/10/20 07:59:00;;;;;;;14.13;8.35;;;;;;;9.00;63.75;100361.68;1712809;81;21080;-58
2021/10/20 08:01:27;;;;;;;13.30;6.97;;;;;;;9.09;63.86;100364.95;1716750;81;21038;-57
2021/10/20 08:03:53;;;;;;;15.30;7.87;;;;;;;9.16;63.87;100360.72;1725859;81;20950;-57
2021/10/20 08:06:20;;;;;;;14.87;7.97;;;;;;;9.24;64.01;100362.68;1715337;81;21117;-57
2021/10/20 08:08:46;;;;;;;15.03;9.75;;;;;;;9.34;64.08;100352.05;1716012;81;21058;-58
2021/10/20 08:11:12;;;;;;;12.50;8.63;;;;;;;9.41;64.21;100353.13;1719641;81;21086;-58
2021/10/20 08:13:39;;;;;;;14.05;9.33;;;;;;;9.50;64.20;100347.91;1719505;81;21082;-57
2021/10/20 08:16:07;;;;;;;13.85;9.38;;;;;;;9.58;64.12;100339.11;1721492;81;20927;-57
2021/10/20 08:18:33;;;;;;;13.25;9.68;;;;;;;9.68;64.27;100335.64;1723683;81;21101;-58
2021/10/20 08:20:59;;;;;;;17.90;10.00;;;;;;;9.79;64.29;100332.96;1719849;81;20950;-58
2021/10/20 08:23:28;;;;;;;13.70;9.08;;;;;;;9.90;64.29;100320.48;1725739;81;20974;-58
2021/10/20 08:25:54;;;;;;;12.00;8.10;;;;;;;9.98;64.26;100315.70;1725978;81;20954;-59
2021/10/20 08:28:20;;;;;;;16.05;8.75;;;;;;;10.11;64.30;100310.75;1731302;81;20960;-57
2021/10/20 08:30:46;;;;;;;16.10;10.03;;;;;;;10.23;64.34;100297.73;1738603;80;21061;-57
2021/10/20 08:33:14;;;;;;;12.58;8.20;;;;;;;10.34;64.32;100297.33;1727782;80;20962;-58
2021/10/20 08:35:40;;;;;;;11.48;9.18;;;;;;;10.45;64.28;100298.27;1734269;81;20974;-58
2021/10/20 08:38:07;;;;;;;13.75;10.28;;;;;;;10.55;64.12;100294.25;1724572;81;20859;-58
2021/10/20 08:40:36;;;;;;;18.80;13.80;;;;;;;10.65;64.08;100297.45;1688417;83;20978;-59
2021/10/20 08:43:03;;;;;;;35.33;19.67;;;;;;;10.75;63.96;100304.23;1729926;81;21385;-58
2021/10/20 08:45:29;;;;;;;20.32;14.93;;;;;;;10.82;63.64;100294.97;1729259;81;21326;-59
2021/10/20 08:47:56;;;;;;;25.75;20.12;;;;;;;10.86;63.55;100292.11;1738087;81;20876;-58
2021/10/20 08:50:25;;;;;;;36.20;19.80;;;;;;;10.90;63.41;100284.75;1728886;81;20895;-57
2021/10/20 08:52:52;;;;;;;23.07;17.65;;;;;;;10.95;63.34;100283.66;1728542;81;21652;-58
2021/10/20 08:55:18;;;;;;;19.50;14.58;;;;;;;11.01;63.28;100286.55;1689336;83;21678;-58
2021/10/20 08:57:45;;;;;;;15.72;12.15;;;;;;;11.07;63.21;100268.77;1734847;81;21539;-58
2021/10/20 09:00:13;;;;;;;15.28;10.95;;;;;;;11.17;63.05;100276.00;1726177;81;21389;-58
2021/10/20 09:02:41;;;;;;;18.12;10.95;;;;;;;11.27;62.73;100276.90;1731303;81;20966;-58
2021/10/20 09:05:09;;;;;;;16.10;10.23;;;;;;;11.35;62.65;100266.66;1697651;82;21283;-58
2021/10/20 09:07:44;;;;;;;13.32;10.95;;;;;;;11.47;62.44;100260.34;1728258;81;21908;-57
2021/10/20 09:10:11;;;;;;;20.97;13.20;;;;;;;11.58;62.42;100256.69;1711909;81;21293;-58
2021/10/20 09:12:40;;;;;;;16.15;11.65;;;;;;;11.67;62.13;100258.97;1693984;83;20884;-59
2021/10/20 09:15:12;;;;;;;14.63;11.60;;;;;;;11.77;62.04;100250.03;1731076;81;20899;-59
2021/10/20 09:17:55;;;;;;;21.65;12.73;;;;;;;11.83;61.99;100246.58;1722120;81;21136;-60
2021/10/20 09:20:33;;;;;;;17.87;12.78;;;;;;;11.89;61.88;100234.19;1683548;83;21473;-57
2021/10/20 09:23:16;;;;;;;12.70;10.85;;;;;;;11.94;61.72;100236.19;1730626;80;21041;-60
2021/10/20 09:25:57;;;;;;;15.55;11.83;;;;;;;11.99;61.80;100235.48;1729579;81;21076;-59
2021/10/20 09:28:31;;;;;;;14.63;9.65;;;;;;;12.06;61.80;100234.28;1729869;81;21054;-59
2021/10/20 09:31:02;;;;;;;16.05;10.45;;;;;;;12.13;61.85;100225.41;1728609;81;21019;-58
2021/10/20 09:33:36;;;;;;;18.55;10.63;;;;;;;12.22;61.86;100225.45;1730819;81;21154;-59
2021/10/20 09:36:08;;;;;;;14.03;10.78;;;;;;;12.26;61.70;100213.55;1728607;81;21366;-59
2021/10/20 09:38:40;;;;;;;28.15;18.65;;;;;;;12.31;61.65;100219.15;1725170;81;21085;-60
2021/10/20 09:41:08;;;;;;;32.73;19.00;;;;;;;12.34;61.58;100204.61;1728280;81;21085;-57
2021/10/20 09:43:40;;;;;;;23.52;13.65;;;;;;;12.38;61.42;100208.45;1690798;83;21741;-57
2021/10/20 09:46:06;;;;;;;21.70;15.98;;;;;;;12.44;61.37;100203.22;1693322;83;21137;-57
2021/10/20 09:48:39;;;;;;;19.12;12.65;;;;;;;12.49;61.30;100202.54;1689197;83;21129;-58
2021/10/20 09:51:11;;;;;;;17.50;13.00;;;;;;;12.57;61.14;100206.20;1727057;81;21072;-58
2021/10/20 09:53:40;;;;;;;21.40;13.28;;;;;;;12.62;60.88;100198.27;1722641;81;21061;-58
2021/10/20 09:56:34;;;;;;;20.48;13.58;;;;;;;12.66;60.45;100193.61;1726874;81;21105;-60
2021/10/20 09:59:00;;;;;;;13.25;11.63;;;;;;;12.68;60.24;100191.20;1728998;81;21130;-59
2021/10/20 10:01:28;;;;;;;12.63;10.55;;;;;;;12.71;60.25;100192.41;1738043;81;21031;-58
2021/10/20 10:04:02;;;;;;;14.60;9.10;;;;;;;12.77;60.25;100186.69;1732064;81;21042;-57
2021/10/20 10:06:29;;;;;;;13.58;10.05;;;;;;;12.84;60.18;100184.08;1730864;81;21678;-58
2021/10/20 10:08:56;;;;;;;12.60;8.80;;;;;;;12.95;59.70;100183.53;1730006;81;21049;-58
2021/10/20 10:11:24;;;;;;;11.45;8.65;;;;;;;13.01;59.34;100167.03;1720732;81;21054;-58
2021/10/20 10:13:53;;;;;;;11.40;9.05;;;;;;;13.07;59.09;100164.48;1728680;81;21101;-57
2021/10/20 10:16:22;;;;;;;13.60;9.95;;;;;;;13.16;58.98;100159.98;1726669;81;22253;-57
2021/10/20 10:18:48;;;;;;;19.37;10.25;;;;;;;13.23;58.92;100154.64;1727950;81;21038;-57
2021/10/20 10:21:36;;;;;;;12.45;9.88;;;;;;;13.31;58.74;100153.77;1728686;81;21423;-58
2021/10/20 10:24:13;;;;;;;18.52;11.90;;;;;;;13.36;58.70;100144.91;1732137;80;21204;-57
2021/10/20 10:27:11;;;;;;;14.68;9.55;;;;;;;13.42;58.54;100147.31;1734566;80;21076;-59
2021/10/20 10:30:03;;;;;;;19.32;9.85;;;;;;;13.47;58.35;100152.46;1679906;83;21139;-58
2021/10/20 10:32:31;;;;;;;13.95;10.10;;;;;;;13.49;57.96;100144.67;1680501;83;21128;-57
2021/10/20 10:35:08;;;;;;;14.18;9.15;;;;;;;13.52;57.99;100143.64;1681321;83;21097;-59
2021/10/20 10:37:36;;;;;;;15.65;9.83;;;;;;;13.52;57.65;100132.34;1682229;83;21128;-59
2021/10/20 10:40:22;;;;;;;14.70;11.30;;;;;;;13.51;57.56;100122.48;1684347;83;21563;-60
2021/10/20 10:42:49;;;;;;;23.30;16.57;;;;;;;13.50;57.65;100117.15;1689298;83;20927;-59
2021/10/20 10:45:17;;;;;;;17.80;16.00;;;;;;;13.51;57.91;100117.55;1686458;83;21410;-59
2021/10/20 10:47:57;;;;;;;22.77;20.08;;;;;;;13.51;57.74;100113.02;1678839;83;21006;-57
2021/10/20 10:50:53;;;;;;;15.58;13.98;;;;;;;13.54;57.67;100106.06;1686247;83;21078;-58
2021/10/20 10:53:30;;;;;;;14.15;10.95;;;;;;;13.57;57.82;100099.15;1683307;83;21144;-58
2021/10/20 10:56:12;;;;;;;17.32;10.55;;;;;;;13.60;57.69;100088.17;1679290;83;21134;-58
2021/10/20 10:59:06;;;;;;;12.30;10.95;;;;;;;13.66;57.62;100085.59;1679526;83;21049;-59
2021/10/20 11:01:47;;;;;;;;;;;;;;;13.75;57.49;100087.79;1682430;83;21105;-58
2021/10/20 11:04:24;;;;;;;12.50;8.65;;;;;;;13.84;57.47;100077.80;1681877;83;22604;-59
2021/10/20 11:06:54;;;;;;;14.63;9.20;;;;;;;13.92;57.25;100070.13;1681666;83;21050;-60
2021/10/20 11:09:31;;;;;;;9.55;7.22;;;;;;;13.98;56.78;100072.95;1682908;83;21566;-59
2021/10/20 11:12:00;;;;;;;9.63;7.75;;;;;;;14.01;56.53;100062.84;1684512;83;20974;-60
2021/10/20 11:14:28;;;;;;;9.63;6.90;;;;;;;14.05;56.61;100058.58;1687214;83;20935;-59
2021/10/20 11:16:57;;;;;;;13.30;6.87;;;;;;;14.09;56.29;100065.58;1679256;83;21056;-58
2021/10/20 11:19:24;;;;;;;8.10;6.97;;;;;;;14.13;56.25;100062.59;1678237;83;21429;-60
2021/10/20 11:21:50;;;;;;;14.95;8.38;;;;;;;14.23;55.84;100052.98;1682916;83;21307;-59
2021/10/20 11:24:16;;;;;;;11.43;7.42;;;;;;;14.23;55.84;100052.98;1684139;83;20911;-59
2021/10/20 11:26:47;;;;;;;9.00;7.50;;;;;;;14.27;55.85;100046.44;1686745;83;20930;-63
2021/10/20 11:29:14;;;;;;;8.20;7.15;;;;;;;14.32;55.71;100043.44;1681426;83;21110;-59